Time;durP1;ratioP1;P1;durP2;ratioP2;P2;SDS_P1;SDS_P2;PMS_P1;PMS_P2;Temp;Humidity;BMP_temperature;BMP_pressure;BME280_temperature;BME280_humidity;BME280_pressure;Samples;Min_cycle;Max_cycle;Signal;HPM_P1;HPM_P2
2021/01/23 00:01:41;;;;;;;0.80;0.80;;;1.60;99.90;;;;;;5052125;28;20029;-69
2021/01/23 00:04:07;;;;;;;1.30;1.20;;;1.60;99.90;;;;;;5051096;28;20494;-68
2021/01/23 00:06:32;;;;;;;1.05;1.05;;;1.70;99.90;;;;;;5052035;28;20542;-69
2021/01/23 00:08:58;;;;;;;1.05;1.05;;;1.70;99.90;;;;;;5051202;28;20024;-70
2021/01/23 00:11:24;;;;;;;1.05;0.95;;;1.70;99.90;;;;;;5074858;28;20059;-70
2021/01/23 00:13:49;;;;;;;1.50;0.90;;;1.70;99.90;;;;;;5065087;28;20056;-69
2021/01/23 00:16:15;;;;;;;0.88;0.88;;;1.60;99.90;;;;;;5057318;28;20021;-70
2021/01/23 00:18:41;;;;;;;0.75;0.75;;;1.70;99.90;;;;;;5052527;28;20108;-71
2021/01/23 00:21:06;;;;;;;1.02;1.02;;;1.70;99.90;;;;;;5050633;28;20032;-71
2021/01/23 00:23:32;;;;;;;1.73;1.10;;;1.70;99.90;;;;;;5051171;28;20456;-71
2021/01/23 00:25:58;;;;;;;1.98;0.98;;;1.70;99.90;;;;;;5051375;28;20032;-69
2021/01/23 00:28:23;;;;;;;0.88;0.88;;;1.60;99.90;;;;;;5051442;28;20032;-68
2021/01/23 00:30:49;;;;;;;1.00;1.00;;;1.60;99.90;;;;;;5051282;28;20033;-69
2021/01/23 00:33:15;;;;;;;1.15;1.15;;;1.70;99.90;;;;;;5050839;28;20025;-70
2021/01/23 00:35:41;;;;;;;1.25;1.15;;;1.70;99.90;;;;;;5051170;28;20078;-70
2021/01/23 00:38:07;;;;;;;0.93;0.93;;;1.60;99.90;;;;;;5050437;28;20510;-68
2021/01/23 00:40:32;;;;;;;1.25;1.25;;;1.70;99.90;;;;;;5051001;28;20382;-70
2021/01/23 00:42:58;;;;;;;0.90;0.90;;;1.70;99.90;;;;;;5050596;28;20033;-70
2021/01/23 00:45:24;;;;;;;1.10;1.10;;;1.60;99.90;;;;;;5051708;28;20086;-69
2021/01/23 00:47:49;;;;;;;0.90;0.90;;;1.60;99.90;;;;;;5051458;28;20029;-70
2021/01/23 00:50:15;;;;;;;1.20;1.10;;;1.60;99.90;;;;;;5051200;28;20021;-71
2021/01/23 00:52:41;;;;;;;1.20;1.20;;;1.60;99.90;;;;;;5050662;28;20084;-71
2021/01/23 00:55:07;;;;;;;0.93;0.93;;;1.60;99.90;;;;;;5050953;28;20025;-69
2021/01/23 00:57:33;;;;;;;0.90;0.90;;;1.60;99.90;;;;;;5051303;28;20017;-70
2021/01/23 00:59:58;;;;;;;0.90;0.90;;;1.60;99.90;;;;;;5054365;28;20112;-70
2021/01/23 01:02:24;;;;;;;0.73;0.73;;;1.60;99.90;;;;;;5054890;28;20096;-68
2021/01/23 01:04:49;;;;;;;0.98;0.98;;;1.60;99.90;;;;;;5054133;28;20039;-69
2021/01/23 01:07:15;;;;;;;0.90;0.90;;;1.60;99.90;;;;;;5055056;28;20029;-69
2021/01/23 01:09:41;;;;;;;1.05;1.05;;;1.60;99.90;;;;;;5054797;28;20029;-70
2021/01/23 01:12:07;;;;;;;1.10;1.10;;;1.70;99.90;;;;;;5054804;28;20028;-67
2021/01/23 01:14:32;;;;;;;1.00;1.00;;;1.60;99.90;;;;;;5054157;28;20025;-70
2021/01/23 01:16:58;;;;;;;0.93;0.93;;;1.70;99.90;;;;;;5054594;28;20021;-67
2021/01/23 01:19:24;;;;;;;1.33;1.23;;;1.70;99.90;;;;;;5054957;28;20499;-68
2021/01/23 01:21:49;;;;;;;1.40;1.08;;;1.70;99.90;;;;;;5055035;28;20479;-69
2021/01/23 01:24:15;;;;;;;1.20;1.20;;;1.70;99.90;;;;;;5060391;28;20025;-68
2021/01/23 01:26:41;;;;;;;1.00;1.00;;;1.70;99.90;;;;;;5073296;28;20432;-69
2021/01/23 01:29:06;;;;;;;1.40;1.30;;;1.70;99.90;;;;;;5068221;28;20048;-71
2021/01/23 01:31:32;;;;;;;1.30;1.30;;;1.80;99.90;;;;;;5051726;28;20045;-68
2021/01/23 01:33:57;;;;;;;1.00;1.00;;;1.70;99.90;;;;;;5034375;28;20025;-69
2021/01/23 01:36:23;;;;;;;1.08;1.00;;;1.70;99.90;;;;;;5042348;28;20025;-69
2021/01/23 01:38:49;;;;;;;1.00;1.00;;;1.60;99.90;;;;;;5049079;28;20037;-69
2021/01/23 01:41:15;;;;;;;0.90;0.90;;;1.60;99.90;;;;;;5045398;28;20026;-70
2021/01/23 01:43:43;;;;;;;2.95;1.10;;;1.60;99.90;;;;;;5053269;28;20025;-69
2021/01/23 01:46:10;;;;;;;1.20;1.15;;;1.70;99.90;;;;;;5053844;28;20036;-68
2021/01/23 01:48:37;;;;;;;1.50;1.40;;;1.70;99.90;;;;;;5054244;28;20395;-69
2021/01/23 01:51:03;;;;;;;1.33;1.20;;;1.70;99.90;;;;;;5053943;28;20501;-68
2021/01/23 01:53:29;;;;;;;1.25;1.23;;;1.70;99.90;;;;;;5053618;28;20017;-70
2021/01/23 01:55:56;;;;;;;1.20;1.20;;;1.70;99.90;;;;;;5053800;28;20025;-69
2021/01/23 01:58:21;;;;;;;1.23;1.23;;;1.80;99.90;;;;;;5053916;28;20036;-69
2021/01/23 02:00:47;;;;;;;1.13;1.13;;;1.80;99.90;;;;;;5053709;28;20029;-70
2021/01/23 02:03:41;;;;;;;1.15;1.15;;;1.90;99.90;;;;;;5051692;28;20033;-70
2021/01/23 02:06:15;;;;;;;1.23;1.23;;;1.90;99.90;;;;;;5053805;28;20032;-70
2021/01/23 02:09:02;;;;;;;1.52;1.42;;;1.90;99.90;;;;;;5053687;28;20029;-69
2021/01/23 02:11:49;;;;;;;1.58;1.48;;;2.00;99.90;;;;;;5052381;28;20017;-69
2021/01/23 02:14:41;;;;;;;1.30;1.00;;;1.90;99.90;;;;;;5053041;28;20017;-68
2021/01/23 02:17:09;;;;;;;0.90;0.90;;;1.90;99.90;;;;;;5024506;28;20395;-69
2021/01/23 02:20:09;;;;;;;0.80;0.80;;;1.90;99.90;;;;;;5032246;28;20044;-69
2021/01/23 02:22:44;;;;;;;0.68;0.68;;;1.90;99.90;;;;;;5052438;28;20030;-68
2021/01/23 02:25:12;;;;;;;0.60;0.60;;;1.90;99.90;;;;;;5043556;28;20130;-68
2021/01/23 02:28:01;;;;;;;0.50;0.50;;;1.90;99.90;;;;;;5033945;28;20120;-69
2021/01/23 02:30:38;;;;;;;0.93;0.85;;;1.80;99.90;;;;;;5049870;28;20029;-69
2021/01/23 02:33:07;;;;;;;0.70;0.70;;;1.80;99.90;;;;;;5052255;28;20021;-69
2021/01/23 02:35:34;;;;;;;0.60;0.60;;;1.80;99.90;;;;;;5052000;28;20041;-70
2021/01/23 02:38:01;;;;;;;0.80;0.80;;;1.80;99.90;;;;;;5052780;28;20020;-68
2021/01/23 02:40:27;;;;;;;0.73;0.73;;;1.80;99.90;;;;;;5052840;28;20114;-68
2021/01/23 02:42:53;;;;;;;0.75;0.75;;;2.00;99.90;;;;;;5052533;28;20082;-71
2021/01/23 02:45:19;;;;;;;0.90;0.90;;;1.90;99.90;;;;;;5052802;28;20112;-67
2021/01/23 02:47:46;;;;;;;0.88;0.88;;;1.80;99.90;;;;;;5052471;28;20099;-69
2021/01/23 02:50:12;;;;;;;0.95;0.95;;;1.90;99.90;;;;;;5053333;28;20083;-69
2021/01/23 02:52:59;;;;;;;1.38;0.80;;;1.90;99.90;;;;;;5052560;28;20134;-69
2021/01/23 02:55:30;;;;;;;1.15;1.10;;;1.80;99.90;;;;;;5053166;28;20532;-69
2021/01/23 02:57:59;;;;;;;0.80;0.80;;;1.80;99.90;;;;;;5053214;28;20079;-71
2021/01/23 03:00:26;;;;;;;0.90;0.90;;;1.80;99.90;;;;;;5053065;28;20483;-71
2021/01/23 03:02:55;;;;;;;0.93;0.93;;;1.90;99.90;;;;;;5052614;28;20025;-68
2021/01/23 03:05:30;;;;;;;0.88;0.88;;;1.90;99.90;;;;;;5069619;28;20033;-70
2021/01/23 03:07:56;;;;;;;1.40;1.30;;;1.90;99.90;;;;;;5062892;28;20387;-69
2021/01/23 03:10:39;;;;;;;1.42;1.33;;;2.00;99.90;;;;;;5053109;28;20089;-68
2021/01/23 03:13:05;;;;;;;;;;;2.00;99.90;;;;;;5052590;28;20021;-70
2021/01/23 03:15:32;;;;;;;1.52;1.42;;;2.00;99.90;;;;;;5053308;28;19975;-70
2021/01/23 03:17:58;;;;;;;1.38;1.27;;;1.90;99.90;;;;;;5054866;28;20089;-70
2021/01/23 03:20:24;;;;;;;1.38;1.30;;;2.00;99.90;;;;;;5059051;28;20052;-70
2021/01/23 03:22:49;;;;;;;1.20;1.10;;;1.90;99.90;;;;;;5056043;28;20032;-70
2021/01/23 03:25:15;;;;;;;1.15;1.15;;;1.90;99.90;;;;;;5056018;28;20029;-68
2021/01/23 03:27:41;;;;;;;1.30;1.20;;;1.90;99.90;;;;;;5055828;28;20108;-69
2021/01/23 03:30:07;;;;;;;3.03;1.42;;;2.00;99.90;;;;;;5053311;28;20033;-69
2021/01/23 03:32:33;;;;;;;1.17;1.15;;;2.00;99.90;;;;;;5053101;28;20067;-70
2021/01/23 03:34:58;;;;;;;1.10;1.10;;;2.00;99.90;;;;;;5051256;28;20013;-70
2021/01/23 03:37:24;;;;;;;1.00;1.00;;;2.10;99.90;;;;;;5052308;28;20021;-70
2021/01/23 03:39:53;;;;;;;2.05;1.00;;;2.10;99.90;;;;;;5052075;28;20029;-68
2021/01/23 03:42:20;;;;;;;0.98;0.98;;;2.00;99.90;;;;;;5051923;28;20064;-69
2021/01/23 03:44:45;;;;;;;0.85;0.85;;;2.00;99.90;;;;;;5051188;28;20071;-69
2021/01/23 03:47:11;;;;;;;1.00;1.00;;;2.00;99.90;;;;;;5051589;28;20510;-69
2021/01/23 03:49:37;;;;;;;1.63;1.10;;;2.10;99.90;;;;;;5051881;28;20060;-69
2021/01/23 03:52:03;;;;;;;0.93;0.93;;;2.00;99.90;;;;;;5051842;28;20029;-69
2021/01/23 03:54:29;;;;;;;0.80;0.80;;;2.00;99.90;;;;;;5049963;28;20021;-69
2021/01/23 03:56:54;;;;;;;1.25;1.20;;;2.00;99.90;;;;;;5051802;28;20028;-69
2021/01/23 03:59:20;;;;;;;1.40;1.20;;;2.00;99.90;;;;;;5051057;28;20506;-70
2021/01/23 04:01:46;;;;;;;1.00;1.00;;;2.00;99.90;;;;;;5052622;28;20037;-70
2021/01/23 04:04:11;;;;;;;0.90;0.90;;;2.00;99.90;;;;;;5050554;28;20533;-70
2021/01/23 04:06:37;;;;;;;1.23;1.13;;;2.00;99.90;;;;;;5034026;28;20143;-71
2021/01/23 04:09:03;;;;;;;3.38;0.93;;;2.10;99.90;;;;;;5033457;28;20021;-70
2021/01/23 04:11:29;;;;;;;1.10;1.05;;;2.00;99.90;;;;;;5034048;28;20098;-70
2021/01/23 04:13:55;;;;;;;1.00;1.00;;;2.00;99.90;;;;;;5052170;28;20045;-70
2021/01/23 04:16:20;;;;;;;0.95;0.95;;;2.00;99.90;;;;;;5052394;28;20075;-70
2021/01/23 04:18:46;;;;;;;1.08;1.08;;;2.00;99.90;;;;;;5052240;28;20029;-69
2021/01/23 04:21:12;;;;;;;0.85;0.85;;;2.00;99.90;;;;;;5051725;28;20143;-70
2021/01/23 04:23:39;;;;;;;0.70;0.70;;;2.00;99.90;;;;;;5050966;28;20047;-70
2021/01/23 04:26:05;;;;;;;0.88;0.88;;;2.00;99.90;;;;;;5049931;28;20029;-72
2021/01/23 04:28:30;;;;;;;0.80;0.80;;;2.00;99.90;;;;;;5049725;28;20033;-68
2021/01/23 04:30:56;;;;;;;0.65;0.65;;;2.00;99.90;;;;;;5051148;28;20044;-67
2021/01/23 04:33:22;;;;;;;0.63;0.63;;;2.10;99.90;;;;;;5051549;28;20024;-69
2021/01/23 04:35:47;;;;;;;1.25;1.00;;;2.10;99.90;;;;;;5054862;28;20032;-70
2021/01/23 04:38:13;;;;;;;0.63;0.63;;;2.00;99.90;;;;;;5055047;28;20231;-70
2021/01/23 04:40:38;;;;;;;0.85;0.85;;;2.00;99.90;;;;;;5055316;28;20107;-68
2021/01/23 04:43:04;;;;;;;0.60;0.60;;;1.90;99.90;;;;;;5052691;28;20102;-68
2021/01/23 04:45:30;;;;;;;1.25;0.75;;;2.10;99.90;;;;;;5055002;28;20043;-68
2021/01/23 04:47:55;;;;;;;0.95;0.80;;;2.10;99.90;;;;;;5054818;28;20106;-71
2021/01/23 04:50:21;;;;;;;0.90;0.80;;;2.20;99.90;;;;;;5054993;28;20025;-71
2021/01/23 04:52:47;;;;;;;0.85;0.85;;;2.10;99.90;;;;;;5054505;28;20021;-68
2021/01/23 04:55:13;;;;;;;0.80;0.80;;;2.10;99.90;;;;;;5054833;28;20028;-70
2021/01/23 04:57:43;;;;;;;1.17;0.85;;;2.10;99.90;;;;;;5054891;28;20054;-69
2021/01/23 05:00:09;;;;;;;0.65;0.65;;;2.00;99.90;;;;;;5054848;28;20033;-70
2021/01/23 05:02:35;;;;;;;0.80;0.80;;;2.10;99.90;;;;;;5053838;28;20090;-71
2021/01/23 05:05:02;;;;;;;0.60;0.60;;;2.00;99.90;;;;;;5052765;28;20452;-68
2021/01/23 05:07:30;;;;;;;0.50;0.50;;;2.10;99.90;;;;;;5054654;28;20021;-70
2021/01/23 05:10:17;;;;;;;0.70;0.70;;;2.00;99.90;;;;;;5054755;28;20025;-69
2021/01/23 05:12:55;;;;;;;0.60;0.60;;;2.10;99.90;;;;;;5053927;28;20037;-69
2021/01/23 05:15:24;;;;;;;0.70;0.70;;;2.00;99.90;;;;;;5054073;28;20505;-68
2021/01/23 05:17:53;;;;;;;0.60;0.60;;;2.00;99.90;;;;;;5054901;28;20074;-69
2021/01/23 05:20:33;;;;;;;1.38;0.65;;;2.10;99.90;;;;;;5056135;28;20151;-70
2021/01/23 05:23:08;;;;;;;1.10;1.00;;;2.00;99.90;;;;;;5052865;28;20123;-69
2021/01/23 05:25:35;;;;;;;0.70;0.70;;;2.00;99.90;;;;;;5054884;28;20032;-69
2021/01/23 05:28:02;;;;;;;0.85;0.60;;;2.00;99.90;;;;;;5052940;28;20090;-69
2021/01/23 05:30:46;;;;;;;1.00;1.00;;;1.90;99.90;;;;;;5067722;28;20495;-69
2021/01/23 05:33:14;;;;;;;0.85;0.85;;;2.00;99.90;;;;;;5053869;28;20040;-69
2021/01/23 05:35:40;;;;;;;1.17;1.08;;;1.90;99.90;;;;;;5054455;28;20017;-70
2021/01/23 05:38:22;;;;;;;1.00;1.00;;;1.90;99.90;;;;;;5053795;28;20032;-71
2021/01/23 05:40:52;;;;;;;1.33;1.20;;;1.80;99.90;;;;;;5054392;28;20021;-69
2021/01/23 05:43:39;;;;;;;1.25;1.00;;;1.80;99.90;;;;;;5053707;28;20036;-69
2021/01/23 05:46:26;;;;;;;0.88;0.88;;;1.80;99.90;;;;;;5070048;28;20080;-71
2021/01/23 05:48:52;;;;;;;0.80;0.80;;;1.80;99.90;;;;;;5076267;28;20037;-70
2021/01/23 05:51:19;;;;;;;2.30;1.17;;;1.90;99.90;;;;;;5058500;28;20028;-68
2021/01/23 05:53:45;;;;;;;3.17;1.10;;;1.80;99.90;;;;;;5056087;28;20387;-69
2021/01/23 05:56:11;;;;;;;1.23;1.13;;;1.80;99.90;;;;;;5054608;28;20025;-69
2021/01/23 05:58:39;;;;;;;1.83;1.33;;;1.80;99.90;;;;;;5053758;28;20027;-70
2021/01/23 06:01:09;;;;;;;1.52;1.30;;;1.80;99.90;;;;;;5054069;28;20110;-68
2021/01/23 06:03:40;;;;;;;1.92;1.30;;;1.80;99.90;;;;;;5053673;28;20025;-69
2021/01/23 06:06:06;;;;;;;1.10;1.10;;;1.80;99.90;;;;;;5053663;28;20107;-68
2021/01/23 06:08:40;;;;;;;1.88;1.50;;;1.80;99.90;;;;;;5053271;28;20159;-69
2021/01/23 06:11:27;;;;;;;1.88;1.58;;;1.80;99.90;;;;;;5053438;28;20387;-68
2021/01/23 06:13:55;;;;;;;1.70;1.60;;;1.80;99.90;;;;;;5047898;28;20033;-68
2021/01/23 06:16:42;;;;;;;1.33;1.23;;;1.70;99.90;;;;;;5033370;28;20387;-69
2021/01/23 06:19:14;;;;;;;1.90;1.80;;;1.80;99.90;;;;;;5032773;28;20472;-69
2021/01/23 06:21:42;;;;;;;4.45;2.30;;;1.90;99.90;;;;;;5032948;28;20030;-69
2021/01/23 06:24:08;;;;;;;2.55;2.35;;;1.80;99.90;;;;;;5035015;28;20021;-71
2021/01/23 06:26:54;;;;;;;4.32;2.47;;;1.90;99.90;;;;;;5037051;28;20067;-71
2021/01/23 06:29:39;;;;;;;2.80;2.40;;;1.70;99.90;;;;;;5039034;28;20033;-70
2021/01/23 06:32:20;;;;;;;3.00;2.38;;;1.80;99.90;;;;;;5036923;28;20029;-69
2021/01/23 06:34:45;;;;;;;2.80;2.60;;;1.80;99.90;;;;;;5033216;28;20124;-70
2021/01/23 06:37:39;;;;;;;4.70;3.10;;;1.70;99.90;;;;;;5041457;28;20049;-70
2021/01/23 06:40:35;;;;;;;4.65;2.85;;;1.70;99.90;;;;;;5055342;28;20021;-71
2021/01/23 06:43:06;;;;;;;4.68;2.88;;;1.70;99.90;;;;;;5042886;28;20448;-69
2021/01/23 06:45:37;;;;;;;3.42;3.13;;;1.70;99.90;;;;;;5051585;28;20506;-69
2021/01/23 06:48:03;;;;;;;4.45;2.60;;;1.70;99.90;;;;;;5063342;28;20036;-68
2021/01/23 06:50:38;;;;;;;3.40;2.67;;;1.70;99.90;;;;;;5072395;28;20413;-69
2021/01/23 06:53:06;;;;;;;3.85;2.85;;;1.70;99.90;;;;;;5070160;28;20031;-69
2021/01/23 06:55:59;;;;;;;3.35;2.90;;;1.70;99.90;;;;;;5072212;28;20024;-67
2021/01/23 06:58:29;;;;;;;4.13;2.58;;;1.70;99.90;;;;;;5072269;28;20021;-69
2021/01/23 07:00:58;;;;;;;4.22;2.65;;;1.60;99.90;;;;;;5055834;28;20024;-69
2021/01/23 07:03:27;;;;;;;8.77;5.05;;;1.60;99.90;;;;;;5051612;28;20391;-68
2021/01/23 07:05:53;;;;;;;3.08;2.65;;;1.60;99.90;;;;;;5051139;28;20483;-68
2021/01/23 07:08:20;;;;;;;2.55;2.35;;;1.70;99.90;;;;;;5052181;28;20025;-68
2021/01/23 07:11:01;;;;;;;3.63;2.30;;;1.80;99.90;;;;;;5052398;28;20100;-71
2021/01/23 07:13:27;;;;;;;4.03;3.28;;;1.80;99.90;;;;;;5050633;28;20037;-71
2021/01/23 07:15:52;;;;;;;4.35;3.10;;;1.80;99.90;;;;;;5052361;28;20695;-71
2021/01/23 07:18:18;;;;;;;5.00;2.67;;;1.80;99.90;;;;;;5052141;28;20063;-70
2021/01/23 07:20:44;;;;;;;2.42;2.22;;;1.90;99.90;;;;;;5052026;28;20375;-71
2021/01/23 07:23:12;;;;;;;2.28;1.90;;;1.90;99.90;;;;;;5051082;28;20024;-70
2021/01/23 07:25:38;;;;;;;2.38;2.17;;;1.90;99.90;;;;;;5052949;28;20025;-74
2021/01/23 07:28:04;;;;;;;5.38;2.20;;;1.90;99.90;;;;;;5052272;28;20032;-75
2021/01/23 07:30:30;;;;;;;2.20;2.00;;;1.90;99.90;;;;;;5051459;28;20525;-75
2021/01/23 07:32:55;;;;;;;2.92;2.40;;;1.90;99.90;;;;;;5052260;28;20036;-73
2021/01/23 07:35:21;;;;;;;2.80;2.53;;;1.90;99.90;;;;;;5052362;28;20028;-71
2021/01/23 07:37:55;;;;;;;5.22;3.20;;;2.00;99.90;;;;;;5072175;28;20449;-74
2021/01/23 07:40:22;;;;;;;3.10;2.80;;;2.00;99.90;;;;;;5072733;28;20039;-72
2021/01/23 07:42:49;;;;;;;3.70;3.17;;;2.00;99.90;;;;;;5058862;28;20075;-73
2021/01/23 07:45:16;;;;;;;3.30;2.45;;;2.10;99.90;;;;;;5052148;28;20501;-73
2021/01/23 07:47:41;;;;;;;2.97;2.78;;;2.10;99.90;;;;;;5052070;28;20099;-72
2021/01/23 07:50:13;;;;;;;4.63;2.63;;;2.10;99.90;;;;;;5052127;28;20151;-71
2021/01/23 07:52:39;;;;;;;2.90;2.60;;;2.20;99.90;;;;;;5051630;28;20024;-73
2021/01/23 07:55:07;;;;;;;5.18;2.97;;;2.20;99.90;;;;;;5051928;28;20027;-72
2021/01/23 07:57:32;;;;;;;2.75;2.50;;;2.30;99.90;;;;;;5051896;28;20032;-74
2021/01/23 07:59:58;;;;;;;2.75;2.55;;;2.60;99.90;;;;;;5051727;28;20036;-72
2021/01/23 08:02:25;;;;;;;4.35;3.00;;;2.30;99.90;;;;;;5051749;28;20514;-71
2021/01/23 08:04:52;;;;;;;4.32;3.53;;;2.30;99.90;;;;;;5050680;28;20555;-70
2021/01/23 08:07:40;;;;;;;5.40;3.08;;;2.60;99.90;;;;;;5050966;28;20040;-70
2021/01/23 08:10:17;;;;;;;3.38;3.08;;;2.80;99.90;;;;;;5051125;28;20091;-70
2021/01/23 08:12:55;;;;;;;3.30;2.88;;;3.00;99.90;;;;;;5050379;28;20024;-71
2021/01/23 08:15:25;;;;;;;3.00;2.80;;;3.10;99.90;;;;;;5051134;28;20017;-72
2021/01/23 08:17:52;;;;;;;3.42;2.97;;;3.00;99.90;;;;;;5051660;28;20021;-76
2021/01/23 08:20:30;;;;;;;7.72;3.60;;;3.10;99.90;;;;;;5050838;28;20107;-70
2021/01/23 08:23:14;;;;;;;4.93;3.13;;;3.30;99.90;;;;;;5049330;28;20446;-72
2021/01/23 08:25:52;;;;;;;3.45;3.15;;;3.40;99.90;;;;;;5051475;28;20025;-71
2021/01/23 08:28:40;;;;;;;4.85;4.10;;;3.50;99.90;;;;;;5055550;28;20021;-73
2021/01/23 08:31:17;;;;;;;6.10;3.97;;;3.70;99.90;;;;;;5054985;28;20525;-74
2021/01/23 08:33:43;;;;;;;5.07;3.47;;;3.70;99.90;;;;;;5054410;28;20036;-74
2021/01/23 08:36:10;;;;;;;4.63;3.38;;;3.90;99.90;;;;;;5057223;28;20075;-71
2021/01/23 08:38:36;;;;;;;4.18;3.45;;;4.00;99.90;;;;;;5073404;28;20031;-73
2021/01/23 08:41:02;;;;;;;6.65;4.25;;;4.00;99.90;;;;;;5073761;28;20028;-70
2021/01/23 08:43:28;;;;;;;5.22;4.35;;;4.10;99.90;;;;;;5053260;28;20093;-71
2021/01/23 08:45:54;;;;;;;6.03;3.88;;;4.20;99.90;;;;;;5051898;28;20538;-75
2021/01/23 08:48:20;;;;;;;4.70;3.80;;;4.30;99.90;;;;;;5052352;28;20025;-72
2021/01/23 08:50:46;;;;;;;4.15;3.60;;;4.30;99.90;;;;;;5052202;28;20044;-76
2021/01/23 08:53:11;;;;;;;4.60;3.53;;;4.30;99.90;;;;;;5052093;28;20017;-70
2021/01/23 08:55:37;;;;;;;3.53;3.20;;;4.40;99.90;;;;;;5057070;28;20017;-71
2021/01/23 08:58:03;;;;;;;4.05;3.63;;;4.40;99.90;;;;;;5055003;28;20021;-71
2021/01/23 09:00:28;;;;;;;4.47;3.50;;;4.50;99.90;;;;;;5054670;28;20078;-71
2021/01/23 09:02:54;;;;;;;5.43;3.03;;;4.70;99.90;;;;;;5053830;28;20398;-70
2021/01/23 09:05:20;;;;;;;4.70;3.22;;;4.60;99.90;;;;;;5053931;28;20664;-69
2021/01/23 09:07:45;;;;;;;3.13;2.75;;;4.70;99.90;;;;;;5053865;28;20103;-71
2021/01/23 09:10:12;;;;;;;4.07;3.40;;;4.90;99.90;;;;;;5052577;28;20120;-71
2021/01/23 09:12:38;;;;;;;3.60;2.97;;;5.20;99.90;;;;;;5050539;28;20056;-73
2021/01/23 09:15:07;;;;;;;4.03;2.95;;;5.40;99.90;;;;;;5061121;28;20018;-75
2021/01/23 09:17:33;;;;;;;3.67;3.08;;;5.60;99.90;;;;;;5057385;28;20024;-74
2021/01/23 09:19:59;;;;;;;3.13;2.83;;;5.70;99.90;;;;;;5054962;28;20391;-73
2021/01/23 09:22:25;;;;;;;5.82;3.30;;;5.70;99.90;;;;;;5057638;28;20044;-73
2021/01/23 09:24:50;;;;;;;5.60;3.67;;;5.80;99.90;;;;;;5062769;28;20033;-72
2021/01/23 09:27:17;;;;;;;5.60;5.00;;;6.00;99.90;;;;;;5073251;28;20029;-75
2021/01/23 09:29:42;;;;;;;8.95;5.45;;;6.20;99.90;;;;;;5073619;28;20021;-72
2021/01/23 09:32:08;;;;;;;6.68;5.70;;;6.30;99.90;;;;;;5064417;28;20410;-72
2021/01/23 09:34:34;;;;;;;5.18;4.68;;;6.50;99.90;;;;;;5069608;28;20029;-75
2021/01/23 09:37:02;;;;;;;5.65;4.40;;;6.70;99.90;;;;;;5086656;28;20025;-73
2021/01/23 09:39:30;;;;;;;7.28;4.90;;;6.80;99.90;;;;;;5091645;28;20058;-73
2021/01/23 09:41:57;;;;;;;6.55;3.95;;;7.00;99.90;;;;;;5078429;28;20052;-72
2021/01/23 09:44:23;;;;;;;6.18;3.88;;;7.00;99.90;;;;;;5054899;28;20491;-71
2021/01/23 09:46:49;;;;;;;4.35;3.95;;;7.10;99.90;;;;;;5055207;28;20035;-72
2021/01/23 09:49:15;;;;;;;5.22;3.75;;;7.40;99.90;;;;;;5054282;28;20025;-74
2021/01/23 09:51:41;;;;;;;3.42;2.67;;;7.90;99.90;;;;;;5055086;28;20100;-73
2021/01/23 09:54:06;;;;;;;4.88;3.92;;;8.70;99.90;;;;;;5054100;28;20452;-72
2021/01/23 09:56:32;;;;;;;5.05;3.30;;;9.40;99.90;;;;;;5054283;28;20029;-73
2021/01/23 09:58:58;;;;;;;6.07;4.22;;;9.40;99.90;;;;;;5052783;28;20060;-72
2021/01/23 10:01:23;;;;;;;4.70;3.30;;;10.70;99.90;;;;;;5053061;28;20083;-68
2021/01/23 10:03:49;;;;;;;3.33;3.00;;;11.60;99.90;;;;;;5053797;28;20037;-69
2021/01/23 10:06:15;;;;;;;5.32;2.95;;;12.40;99.90;;;;;;5053271;28;20025;-68
2021/01/23 10:08:40;;;;;;;6.78;3.22;;;12.90;99.90;;;;;;5053575;28;20024;-75
2021/01/23 10:11:06;;;;;;;2.95;2.60;;;12.60;99.90;;;;;;5054558;28;20017;-73
2021/01/23 10:13:31;;;;;;;2.95;2.40;;;12.30;99.90;;;;;;5052474;28;20372;-78
2021/01/23 10:15:57;;;;;;;2.42;2.00;;;11.90;99.90;;;;;;5054265;28;20047;-74
2021/01/23 10:18:23;;;;;;;4.93;2.75;;;11.30;99.90;;;;;;5054958;28;20123;-75
2021/01/23 10:20:49;;;;;;;18.58;10.05;;;11.30;99.90;;;;;;5054056;28;20055;-75
2021/01/23 10:23:14;;;;;;;4.60;3.30;;;10.90;99.90;;;;;;5052154;28;20028;-74
2021/01/23 10:25:40;;;;;;;3.90;2.10;;;10.60;99.90;;;;;;5054046;28;20025;-77
2021/01/23 10:28:06;;;;;;;2.20;2.00;;;9.90;99.90;;;;;;5053744;28;20036;-76
2021/01/23 10:30:31;;;;;;;2.28;2.08;;;9.10;99.90;;;;;;5076869;23;20112;-72
2021/01/23 10:32:57;;;;;;;3.58;2.45;;;8.60;99.90;;;;;;5013689;28;20061;-73
2021/01/23 10:35:23;;;;;;;3.03;2.30;;;9.40;99.90;;;;;;5014901;28;20072;-72
2021/01/23 10:37:48;;;;;;;4.32;2.40;;;9.80;99.90;;;;;;5013741;28;20022;-70
2021/01/23 10:40:15;;;;;;;2.80;2.20;;;10.30;99.90;;;;;;5014403;28;20492;-71
2021/01/23 10:42:41;;;;;;;3.38;2.60;;;10.20;99.90;;;;;;5004547;28;20069;-73
2021/01/23 10:45:07;;;;;;;3.58;2.85;;;10.40;99.90;;;;;;5013126;28;20111;-72
2021/01/23 10:47:35;;;;;;;2.65;2.45;;;10.70;99.90;;;;;;5013144;28;20030;-74
2021/01/23 10:50:01;;;;;;;2.85;2.63;;;11.20;99.90;;;;;;5013592;28;20084;-75
2021/01/23 10:52:27;;;;;;;5.20;2.58;;;11.80;99.90;;;;;;5013476;28;20022;-72
2021/01/23 10:54:53;;;;;;;2.83;2.63;;;13.00;99.90;;;;;;5013597;28;20029;-71
2021/01/23 10:57:18;;;;;;;5.07;3.17;;;13.70;99.90;;;;;;5013064;28;20025;-72
2021/01/23 10:59:44;;;;;;;4.93;2.78;;;13.60;99.80;;;;;;5013209;28;20105;-73
2021/01/23 11:02:10;;;;;;;6.25;3.08;;;14.10;98.90;;;;;;5015149;28;20092;-74
2021/01/23 11:04:35;;;;;;;4.13;2.97;;;14.20;98.20;;;;;;5014203;28;20037;-75
2021/01/23 11:07:01;;;;;;;3.47;3.22;;;14.30;98.60;;;;;;5012263;28;20138;-74
2021/01/23 11:09:26;;;;;;;4.97;3.17;;;13.80;98.10;;;;;;5013403;28;20026;-71
2021/01/23 11:11:52;;;;;;;3.58;3.00;;;14.30;98.00;;;;;;5013170;28;20021;-73
2021/01/23 11:14:18;;;;;;;2.97;2.70;;;14.60;97.50;;;;;;5012350;28;20030;-73
2021/01/23 11:16:43;;;;;;;5.40;3.20;;;14.80;96.20;;;;;;5012724;28;20566;-73
2021/01/23 11:19:10;;;;;;;3.47;3.17;;;15.30;95.60;;;;;;5013052;28;20075;-77
2021/01/23 11:21:36;;;;;;;3.35;3.05;;;15.10;94.30;;;;;;5013088;28;20506;-73
2021/01/23 11:24:02;;;;;;;4.05;3.05;;;15.10;94.20;;;;;;5011411;28;20026;-70
2021/01/23 11:26:27;;;;;;;5.22;3.03;;;15.40;93.10;;;;;;5011381;28;20053;-71
2021/01/23 11:28:53;;;;;;;3.72;2.80;;;15.90;93.00;;;;;;5012437;28;20450;-71
2021/01/23 11:31:19;;;;;;;3.15;2.85;;;15.60;92.90;;;;;;5011685;28;20480;-71
2021/01/23 11:33:45;;;;;;;3.50;2.60;;;14.80;92.60;;;;;;5011349;28;20021;-69
2021/01/23 11:36:11;;;;;;;3.83;3.10;;;13.40;94.80;;;;;;5012490;28;20080;-69
2021/01/23 11:38:37;;;;;;;2.80;2.58;;;12.90;96.40;;;;;;5012026;28;20114;-69
2021/01/23 11:41:02;;;;;;;3.88;3.35;;;14.20;95.10;;;;;;5012270;28;20029;-70
2021/01/23 11:43:28;;;;;;;5.43;3.10;;;14.60;93.30;;;;;;5011537;28;20121;-70
2021/01/23 11:45:54;;;;;;;4.30;3.20;;;14.20;92.90;;;;;;5012124;28;20026;-70
2021/01/23 11:48:20;;;;;;;3.45;3.17;;;14.10;94.10;;;;;;5011935;28;20060;-72
2021/01/23 11:50:45;;;;;;;4.43;3.67;;;12.10;96.90;;;;;;5012315;28;20109;-71
2021/01/23 11:53:11;;;;;;;3.75;3.35;;;11.40;98.10;;;;;;5011110;28;20062;-72
2021/01/23 11:55:36;;;;;;;4.50;3.70;;;11.10;99.70;;;;;;5012346;28;20097;-71
2021/01/23 11:58:03;;;;;;;3.78;3.47;;;10.50;99.90;;;;;;5011129;28;20064;-69
2021/01/23 12:00:31;;;;;;;4.15;3.85;;;10.70;99.90;;;;;;5012439;28;20528;-67
2021/01/23 12:02:57;;;;;;;3.92;3.58;;;10.20;99.90;;;;;;5011008;28;20026;-67
2021/01/23 12:05:22;;;;;;;4.60;3.53;;;10.20;99.90;;;;;;5011834;28;20033;-69
2021/01/23 12:07:48;;;;;;;4.15;3.75;;;10.60;99.90;;;;;;5011870;28;20106;-68
2021/01/23 12:10:17;;;;;;;5.50;4.70;;;11.10;99.90;;;;;;5011469;28;20026;-70
2021/01/23 12:12:44;;;;;;;4.57;4.13;;;10.70;99.90;;;;;;5011421;28;20081;-70
2021/01/23 12:15:14;;;;;;;5.75;3.97;;;10.40;99.90;;;;;;5012281;28;20030;-70
2021/01/23 12:17:40;;;;;;;5.15;4.65;;;10.50;99.90;;;;;;5011567;28;20029;-70
2021/01/23 12:20:08;;;;;;;4.68;4.28;;;11.40;99.90;;;;;;5011676;28;20034;-69
2021/01/23 12:22:35;;;;;;;5.47;4.47;;;11.60;99.80;;;;;;5008632;28;20037;-68
2021/01/23 12:25:01;;;;;;;4.40;4.00;;;11.40;99.90;;;;;;4992748;28;20531;-69
2021/01/23 12:27:27;;;;;;;6.57;3.08;;;10.40;99.90;;;;;;5012222;28;20060;-70
2021/01/23 12:29:53;;;;;;;6.90;4.38;;;10.60;99.90;;;;;;5011057;28;20053;-71
2021/01/23 12:32:18;;;;;;;5.13;4.00;;;10.90;99.90;;;;;;5014080;28;20033;-74
2021/01/23 12:34:44;;;;;;;5.47;4.30;;;10.90;99.90;;;;;;5011179;28;20029;-71
2021/01/23 12:37:10;;;;;;;4.82;4.15;;;10.60;99.90;;;;;;5023511;28;20079;-77
2021/01/23 12:39:36;;;;;;;4.63;4.22;;;10.70;99.90;;;;;;5016885;28;20054;-77
2021/01/23 12:42:03;;;;;;;6.15;4.32;;;10.70;99.90;;;;;;5029923;28;20022;-76
2021/01/23 12:44:28;;;;;;;4.50;4.10;;;10.70;99.90;;;;;;5013748;28;20113;-76
2021/01/23 12:46:54;;;;;;;4.15;3.75;;;10.70;99.90;;;;;;5012772;28;20463;-75
2021/01/23 12:49:20;;;;;;;5.32;4.28;;;10.50;99.90;;;;;;5016315;28;20030;-77
2021/01/23 12:51:45;;;;;;;4.05;3.58;;;10.70;99.90;;;;;;5016960;28;20112;-76
2021/01/23 12:54:11;;;;;;;4.93;3.85;;;10.50;99.90;;;;;;4996539;28;20037;-76
2021/01/23 12:56:37;;;;;;;5.50;3.90;;;11.30;99.90;;;;;;5017258;28;20029;-77
2021/01/23 12:59:02;;;;;;;4.30;3.90;;;11.20;99.90;;;;;;5018893;28;20034;-75
2021/01/23 13:01:28;;;;;;;6.60;4.78;;;11.70;99.90;;;;;;5020724;28;20041;-76